createdAt,value
2023-02-11T00:00:24.170Z,81.51
2023-02-11T00:01:24.147Z,82.63
2023-02-11T00:02:24.145Z,83.98
2023-02-11T00:03:24.224Z,79.23
2023-02-11T00:04:24.076Z,81.25
2023-02-11T00:05:24.059Z,80.75
2023-02-11T00:06:24.042Z,78.38
2023-02-11T00:07:23.997Z,76.00
2023-02-11T00:08:23.982Z,73.80
2023-02-11T00:09:23.952Z,75.33
2023-02-11T06:33:15.703Z,91.73
2023-02-11T07:03:14.999Z,94.50
2023-02-11T07:04:14.929Z,95.89
2023-02-11T07:05:14.898Z,97.24
2023-02-11T07:06:14.869Z,98.34
2023-02-11T07:07:14.839Z,98.14
2023-02-11T07:08:14.817Z,99.79
2023-02-11T07:09:14.804Z,101.44
2023-02-11T07:10:14.800Z,100.43
2023-02-11T07:11:14.770Z,99.70
2023-02-11T07:12:14.725Z,101.50
2023-02-11T07:13:14.718Z,102.73
2023-02-11T07:14:14.701Z,100.87
2023-02-11T07:15:14.671Z,100.41
2023-02-11T07:16:14.731Z,98.94
2023-02-11T07:17:14.654Z,103.40
2023-02-11T07:18:14.850Z,101.77
2023-02-11T07:19:14.597Z,102.85
2023-02-11T07:20:14.556Z,100.49
2023-02-11T07:21:14.532Z,100.04
2023-02-11T07:22:14.509Z,102.58
2023-02-11T07:28:14.405Z,105.81
2023-02-11T07:29:14.359Z,105.56
2023-02-11T07:30:14.326Z,105.50
2023-02-11T07:31:14.353Z,104.87
2023-02-11T07:32:14.337Z,105.71
2023-02-11T07:33:14.258Z,106.01
2023-02-11T07:34:14.232Z,107.01
2023-02-11T07:35:14.197Z,105.98
2023-02-11T07:36:14.164Z,105.62
2023-02-11T07:37:14.158Z,105.80
2023-02-11T07:38:14.115Z,106.63
2023-02-11T07:39:14.217Z,105.01
2023-02-11T07:40:14.079Z,106.21
2023-02-11T07:41:14.051Z,107.48
2023-02-11T07:42:14.047Z,108.68
2023-02-11T07:43:14.052Z,107.31
2023-02-11T07:44:14.025Z,106.48
2023-02-11T07:45:14.010Z,108.20
2023-02-11T07:46:14.058Z,110.11
2023-02-11T07:47:14.002Z,110.66
2023-02-11T07:48:13.990Z,110.26
2023-02-11T07:49:13.987Z,109.15
2023-02-11T07:50:13.977Z,112.31
2023-02-11T07:51:13.972Z,114.41
2023-02-11T07:52:13.951Z,110.45
2023-02-11T07:53:13.950Z,112.40
2023-02-11T07:54:13.963Z,113.09
2023-02-11T07:55:13.940Z,114.90
2023-02-11T07:56:13.941Z,116.04
2023-02-11T07:58:13.912Z,116.62
2023-02-11T13:20:06.672Z,103.09
2023-02-11T13:22:06.621Z,98.65
2023-02-11T13:23:06.606Z,95.65
2023-02-11T13:24:06.572Z,97.42
2023-02-11T13:25:06.554Z,95.70
2023-02-11T13:26:06.520Z,96.01
2023-02-11T13:27:06.487Z,96.27
2023-02-11T13:28:06.484Z,94.55
2023-02-11T13:29:06.443Z,99.03
2023-02-11T13:30:06.423Z,96.49
2023-02-11T13:31:06.481Z,96.31
2023-02-11T13:32:06.443Z,92.11
2023-02-11T13:33:06.365Z,93.40
2023-02-11T13:34:06.300Z,93.06
2023-02-11T13:35:06.300Z,91.32
2023-02-11T13:36:06.259Z,91.03
2023-02-11T13:37:06.224Z,91.08
2023-02-11T13:38:06.194Z,91.28
2023-02-11T13:39:06.182Z,91.10
2023-02-11T13:40:06.147Z,91.47
2023-02-11T13:41:06.108Z,88.46
2023-02-11T13:42:06.086Z,89.15
2023-02-11T13:43:06.066Z,83.70
2023-02-11T13:44:06.065Z,83.04
2023-02-11T13:45:06.037Z,85.32
2023-02-11T13:46:06.023Z,88.72
2023-02-11T13:47:06.019Z,85.12
2023-02-11T13:48:05.954Z,87.46
2023-02-11T13:49:05.946Z,90.00
2023-02-11T13:50:05.912Z,86.65
2023-02-11T13:51:05.894Z,86.45
2023-02-11T13:52:05.872Z,87.84
2023-02-11T13:53:05.859Z,86.67
2023-02-11T13:54:05.842Z,86.17
2023-02-11T13:55:05.809Z,85.61
2023-02-11T13:56:05.781Z,88.53
2023-02-11T13:57:05.753Z,84.95
2023-02-11T13:58:05.732Z,89.11
2023-02-11T13:59:05.708Z,89.44
2023-02-11T14:00:05.699Z,86.54
2023-02-11T14:01:05.730Z,88.68
2023-02-11T14:02:05.693Z,89.33
2023-02-11T14:03:05.619Z,87.27
2023-02-11T14:04:05.596Z,84.67
2023-02-11T14:05:05.568Z,84.08
2023-02-11T14:06:05.524Z,88.90
2023-02-11T14:07:05.509Z,92.02
2023-02-11T14:08:05.489Z,90.58
2023-02-11T14:09:05.468Z,90.28
2023-02-11T14:10:05.431Z,86.36
2023-02-11T14:11:05.410Z,86.36
2023-02-11T14:12:05.390Z,85.01
2023-02-11T14:13:05.369Z,84.46
2023-02-11T14:14:05.370Z,84.99
2023-02-11T14:15:07.752Z,86.86
2023-02-11T14:16:05.531Z,83.37
2023-02-11T14:17:05.509Z,86.64
2023-02-11T14:18:05.459Z,86.66
2023-02-11T14:19:05.448Z,85.35
2023-02-11T14:20:05.417Z,84.76
2023-02-11T14:21:05.405Z,83.70
2023-02-11T14:22:05.360Z,83.10
2023-02-11T14:23:05.397Z,86.09
2023-02-11T14:24:05.415Z,81.79
2023-02-11T14:25:05.462Z,78.95
2023-02-11T14:26:05.506Z,81.71
2023-02-11T14:27:05.536Z,81.82
2023-02-11T14:28:05.602Z,84.30
2023-02-11T14:29:05.629Z,82.74
2023-02-11T14:30:05.647Z,85.05
2023-02-11T14:31:05.772Z,86.60
2023-02-11T14:32:06.185Z,84.65
2023-02-11T14:33:05.692Z,82.35
2023-02-11T14:34:05.668Z,86.22
2023-02-11T14:35:05.649Z,89.31
2023-02-11T14:36:05.643Z,84.10
2023-02-11T14:37:05.609Z,84.15
2023-02-11T14:38:05.567Z,84.47
2023-02-11T14:39:05.563Z,84.77
2023-02-11T14:40:05.511Z,86.51
2023-02-11T14:41:05.503Z,86.02
2023-02-11T14:42:05.469Z,87.98
2023-02-11T14:43:05.448Z,88.08
2023-02-11T14:44:05.439Z,89.00
2023-02-11T14:45:05.419Z,89.11
2023-02-11T14:46:05.438Z,87.44
2023-02-11T14:47:05.359Z,88.71
2023-02-11T14:48:05.343Z,90.54
2023-02-11T14:49:05.320Z,93.08
2023-02-11T14:50:05.286Z,89.80
2023-02-11T14:51:05.271Z,89.92
2023-02-11T14:52:05.242Z,90.32
2023-02-11T14:53:05.218Z,92.08
2023-02-11T14:54:05.190Z,90.51
2023-02-11T14:55:05.178Z,88.14
2023-02-11T14:56:05.169Z,87.10
2023-02-11T14:57:05.124Z,92.46
2023-02-11T14:58:05.104Z,93.85
2023-02-11T14:59:05.117Z,92.17
2023-02-11T15:00:05.105Z,93.57
2023-02-11T15:01:05.072Z,93.74
2023-02-11T15:02:04.997Z,93.86
2023-02-11T15:03:05.006Z,96.16
2023-02-11T15:04:04.972Z,97.92
2023-02-11T15:05:04.935Z,96.88
2023-02-11T15:06:04.902Z,100.01
2023-02-11T15:07:04.886Z,96.61
2023-02-11T15:08:04.848Z,98.55
2023-02-11T15:09:04.832Z,93.69
2023-02-11T15:10:04.804Z,96.32
2023-02-11T15:11:04.785Z,96.69
2023-02-11T15:12:04.772Z,95.78
2023-02-11T15:13:04.747Z,98.84
2023-02-11T15:14:04.704Z,97.42
2023-02-11T15:15:04.681Z,98.44
2023-02-11T15:16:04.731Z,98.55
2023-02-11T15:17:04.666Z,98.90
2023-02-11T15:18:04.609Z,95.96
2023-02-11T15:19:04.589Z,96.78
2023-02-11T15:20:04.575Z,97.81
2023-02-11T15:21:05.114Z,99.14
2023-02-11T15:22:04.514Z,96.72
2023-02-11T15:23:04.491Z,95.70
2023-02-11T15:24:04.462Z,93.03
2023-02-11T15:25:04.447Z,93.11
2023-02-11T15:26:04.420Z,93.17
2023-02-11T15:27:04.401Z,93.41
2023-02-11T15:28:04.424Z,93.68
2023-02-11T15:29:04.353Z,92.55
2023-02-11T15:30:04.326Z,97.63
2023-02-11T15:31:04.418Z,93.28
2023-02-11T15:32:04.412Z,93.47
2023-02-11T15:33:04.269Z,94.45
2023-02-11T15:34:04.235Z,95.71
2023-02-11T15:35:04.228Z,94.10
2023-02-11T15:36:04.195Z,96.71
2023-02-11T15:37:04.195Z,98.24
2023-02-11T15:38:04.157Z,97.86
2023-02-11T15:39:04.143Z,99.44
2023-02-11T15:40:04.109Z,98.56
2023-02-11T15:41:04.097Z,97.62
2023-02-11T15:42:04.064Z,97.50
2023-02-11T15:43:04.052Z,97.44
2023-02-11T15:44:04.015Z,96.51
2023-02-11T15:45:03.986Z,98.02
2023-02-11T15:46:03.995Z,97.11
2023-02-11T15:47:03.941Z,96.93
2023-02-11T18:56:59.803Z,76.01
2023-02-11T18:57:59.778Z,75.98
2023-02-11T18:58:59.760Z,73.77
2023-02-11T18:59:59.749Z,74.00
2023-02-11T19:00:59.730Z,74.65
2023-02-11T19:01:59.694Z,78.73
2023-02-11T19:02:59.667Z,75.54
2023-02-11T19:03:59.694Z,75.48
2023-02-11T19:04:59.630Z,76.32
2023-02-11T19:05:59.606Z,81.14
2023-02-11T19:06:59.594Z,79.56
2023-02-11T19:07:59.569Z,81.80
2023-02-11T19:09:00.158Z,81.57
2023-02-11T19:09:59.523Z,81.72
2023-02-11T19:10:59.485Z,83.92
2023-02-11T19:11:59.489Z,83.17
2023-02-11T19:12:59.444Z,87.65
2023-02-11T19:13:59.423Z,86.69
2023-02-11T19:14:59.405Z,86.88
2023-02-11T19:15:59.385Z,92.19
2023-02-11T19:16:59.428Z,85.79
2023-02-11T19:17:59.350Z,86.05
2023-02-11T19:18:59.301Z,86.81
2023-02-11T19:19:59.277Z,87.97
2023-02-11T19:20:59.267Z,86.44
2023-02-11T19:21:59.241Z,88.59
2023-02-11T19:22:59.209Z,89.61
2023-02-11T19:23:59.195Z,90.83
2023-02-11T19:24:59.176Z,93.02
2023-02-11T19:25:59.134Z,89.14
2023-02-11T19:26:59.116Z,87.68
2023-02-11T19:27:59.133Z,92.43
2023-02-11T19:28:59.059Z,90.48
2023-02-11T19:29:59.047Z,90.67
2023-02-11T19:30:59.101Z,90.05
2023-02-11T19:31:59.037Z,87.49
2023-02-11T19:32:59.019Z,88.39
2023-02-11T19:33:58.951Z,88.10
2023-02-11T19:34:58.930Z,86.86
2023-02-11T19:35:58.911Z,87.13
2023-02-11T19:36:58.893Z,89.34
2023-02-11T19:37:58.864Z,87.87
2023-02-11T19:38:58.851Z,88.40
2023-02-11T19:39:58.816Z,90.47
2023-02-11T19:40:58.805Z,90.22
2023-02-11T19:41:58.770Z,90.28
2023-02-11T19:42:58.751Z,89.29
2023-02-11T19:43:58.741Z,91.76
2023-02-11T19:44:58.722Z,92.24
2023-02-11T19:45:58.805Z,91.59
2023-02-11T19:46:58.682Z,92.54
2023-02-11T19:47:58.701Z,90.49
2023-02-11T19:48:58.649Z,91.28
2023-02-11T19:49:58.626Z,89.70
2023-02-11T19:50:58.641Z,93.04
2023-02-11T19:51:58.653Z,89.60
2023-02-11T19:52:58.581Z,90.73
2023-02-11T19:53:58.553Z,91.06
2023-02-11T19:54:58.537Z,85.91
2023-02-11T19:55:58.515Z,90.15
2023-02-11T19:56:58.517Z,89.74
2023-02-11T19:57:58.500Z,89.15
2023-02-11T19:58:58.493Z,88.40
2023-02-11T19:59:58.457Z,89.98
2023-02-11T20:00:58.528Z,92.09
2023-02-11T20:01:58.440Z,92.90
2023-02-11T20:02:58.578Z,92.32
2023-02-11T20:03:58.396Z,94.90
2023-02-11T20:04:58.389Z,93.14
2023-02-11T20:05:58.366Z,93.49
2023-02-11T20:06:58.369Z,94.98
2023-02-11T20:07:58.327Z,100.70
2023-02-11T20:08:58.876Z,99.20
2023-02-11T20:09:58.309Z,95.02
2023-02-11T20:10:58.302Z,96.64
2023-02-11T20:11:58.271Z,96.51
2023-02-11T20:12:58.265Z,93.24
2023-02-11T20:13:58.285Z,92.10
2023-02-11T20:14:58.232Z,95.74
2023-02-11T20:15:58.280Z,93.49
2023-02-11T20:16:58.207Z,92.95
2023-02-11T20:17:58.209Z,91.39
2023-02-11T20:18:58.210Z,90.22
2023-02-11T20:19:58.162Z,92.12
2023-02-11T20:20:58.145Z,92.15
2023-02-11T20:21:58.135Z,95.93
2023-02-11T20:22:58.109Z,90.70
2023-02-11T20:23:58.085Z,92.48
2023-02-11T20:24:58.082Z,94.75
2023-02-11T20:25:58.112Z,90.26
2023-02-11T20:26:58.037Z,89.21
2023-02-11T20:27:58.043Z,89.30
2023-02-11T20:28:57.987Z,91.84
2023-02-11T20:29:58.013Z,91.38
2023-02-11T20:30:58.052Z,94.44
2023-02-11T20:31:58.198Z,94.22
2023-02-11T20:32:57.915Z,98.33
2023-02-11T20:33:57.914Z,92.38
2023-02-11T20:34:57.909Z,94.59
2023-02-11T20:35:57.887Z,91.58
2023-02-11T20:36:57.838Z,93.62
2023-02-11T20:37:57.823Z,92.76
2023-02-11T20:38:57.808Z,93.72
2023-02-11T20:39:57.791Z,95.11
2023-02-11T20:40:57.776Z,94.82
2023-02-11T20:41:57.760Z,96.11
2023-02-11T20:42:57.764Z,96.97
2023-02-11T20:43:57.744Z,98.27
2023-02-11T20:44:57.725Z,98.48
2023-02-11T20:45:57.780Z,95.64
2023-02-11T20:46:57.694Z,99.83
2023-02-11T20:47:57.698Z,98.56
2023-02-11T20:48:57.679Z,99.10
2023-02-11T20:49:57.652Z,97.43
2023-02-11T20:50:57.638Z,95.09
2023-02-11T20:51:57.618Z,98.40
2023-02-11T20:52:57.639Z,96.96
2023-02-11T20:53:57.590Z,97.53
2023-02-11T20:54:57.580Z,98.24
2023-02-11T20:55:57.553Z,95.99
2023-02-11T20:56:57.545Z,96.92
2023-02-11T20:57:57.535Z,95.55
2023-02-11T20:58:57.506Z,99.06
2023-02-11T20:59:57.490Z,95.45
2023-02-11T21:00:57.460Z,99.62
2023-02-11T21:01:57.583Z,94.34
2023-02-11T21:02:57.484Z,96.33
2023-02-11T21:03:57.425Z,95.62
2023-02-11T21:04:57.393Z,97.73
2023-02-11T21:05:57.365Z,95.57
2023-02-11T21:06:57.352Z,94.22
2023-02-11T21:07:57.358Z,89.25
2023-02-11T21:08:57.330Z,91.23
2023-02-11T21:09:57.293Z,93.96
2023-02-11T21:10:57.297Z,90.74
2023-02-11T21:11:57.260Z,91.82
2023-02-11T21:12:57.213Z,92.56
2023-02-11T21:13:57.204Z,89.63
2023-02-11T21:14:57.188Z,91.26
2023-02-11T21:15:57.589Z,88.02
2023-02-11T21:16:57.136Z,89.73
2023-02-11T21:17:57.108Z,91.22
2023-02-11T21:18:57.108Z,92.62
2023-02-11T21:19:57.073Z,88.76
2023-02-11T21:20:57.048Z,93.06
2023-02-11T21:21:57.035Z,92.48
2023-02-11T21:22:57.016Z,90.88
2023-02-11T21:23:56.987Z,92.72
2023-02-11T21:24:56.986Z,90.84
2023-02-11T21:25:57.202Z,90.39
2023-02-11T21:26:56.939Z,88.91
2023-02-11T21:27:56.942Z,86.85
2023-02-11T21:28:56.915Z,86.28
2023-02-11T21:29:56.881Z,84.47
2023-02-11T21:30:57.037Z,83.04
2023-02-11T21:31:56.960Z,85.16
2023-02-11T21:32:56.832Z,82.54
2023-02-11T21:33:56.831Z,83.33
2023-02-11T21:34:56.801Z,81.38
2023-02-11T21:35:57.099Z,83.24
2023-02-11T21:36:56.761Z,82.14
2023-02-11T21:37:56.756Z,78.65
2023-02-11T21:38:56.739Z,80.18
2023-02-11T21:39:56.747Z,73.19
2023-02-11T21:40:56.708Z,76.91
2023-02-11T21:41:56.708Z,75.90
2023-02-11T21:42:56.713Z,77.19
2023-02-11T21:43:56.701Z,77.17
2023-02-11T21:44:56.647Z,76.43
2023-02-11T21:45:56.848Z,79.41
2023-02-11T21:46:56.672Z,81.64
2023-02-11T21:47:56.609Z,84.97
2023-02-11T21:48:56.603Z,82.63
2023-02-11T21:49:56.608Z,85.97
2023-02-11T21:50:56.559Z,87.78
2023-02-11T21:51:56.544Z,84.34
2023-02-11T21:52:56.537Z,89.45
2023-02-11T21:53:56.544Z,92.80
2023-02-11T21:54:56.508Z,93.73
2023-02-11T21:55:56.737Z,90.75
2023-02-11T21:56:56.459Z,91.33
2023-02-11T21:57:56.453Z,91.49
2023-02-11T21:58:56.899Z,90.66
2023-02-11T21:59:56.418Z,86.99
2023-02-11T22:00:56.415Z,93.19
2023-02-11T22:01:56.388Z,89.05
2023-02-11T22:02:56.368Z,92.77
2023-02-11T22:03:56.343Z,90.62
2023-02-11T22:04:56.396Z,90.33
2023-02-11T22:05:56.745Z,91.67
2023-02-11T22:06:56.309Z,92.02
2023-02-11T22:07:56.288Z,90.14
2023-02-11T22:08:56.276Z,93.79
2023-02-11T22:09:56.264Z,94.96
2023-02-11T22:10:56.236Z,95.10
2023-02-11T22:11:56.231Z,92.63
2023-02-11T22:12:56.198Z,93.41
2023-02-11T22:13:56.222Z,95.33
2023-02-11T22:14:56.170Z,96.19
2023-02-11T22:15:56.513Z,92.04
2023-02-11T22:16:56.183Z,92.23
2023-02-11T22:17:56.107Z,92.50
2023-02-11T22:18:56.103Z,95.60
2023-02-11T22:19:56.064Z,94.67
2023-02-11T22:20:56.078Z,93.38
2023-02-11T22:21:56.029Z,93.98
2023-02-11T22:22:56.014Z,97.53
2023-02-11T22:23:56.036Z,99.89
2023-02-11T22:24:55.989Z,104.03
2023-02-11T22:25:56.270Z,105.38
2023-02-11T22:26:55.939Z,104.14
2023-02-11T22:27:55.919Z,102.00
2023-02-11T22:28:55.886Z,104.15
2023-02-11T22:29:55.885Z,100.42
2023-02-11T22:30:55.900Z,98.59
2023-02-11T22:31:55.922Z,101.30
2023-02-11T22:32:55.815Z,102.31
2023-02-11T22:33:55.792Z,101.51
2023-02-11T22:34:55.774Z,97.65
2023-02-11T22:35:56.134Z,97.21
2023-02-11T22:36:55.728Z,99.71
2023-02-11T22:37:55.688Z,99.34
2023-02-11T22:38:55.684Z,99.77
2023-02-11T22:39:55.660Z,102.44
2023-02-11T22:40:55.626Z,97.03
2023-02-11T22:41:55.628Z,94.11
2023-02-11T22:42:55.608Z,96.72
2023-02-11T22:43:55.614Z,95.28
2023-02-11T22:44:55.606Z,95.09
2023-02-11T22:45:56.011Z,97.36
2023-02-11T22:46:55.587Z,94.50
2023-02-11T22:47:55.570Z,99.29
2023-02-11T22:48:55.575Z,98.32
2023-02-11T22:49:55.550Z,100.04
2023-02-11T22:50:55.542Z,100.86
2023-02-11T22:51:55.524Z,97.83
2023-02-11T22:52:55.503Z,99.85
2023-02-11T22:53:55.472Z,98.89
2023-02-11T22:54:55.473Z,97.98
2023-02-11T22:55:55.727Z,99.00
2023-02-11T22:56:55.425Z,101.46
2023-02-11T22:57:55.402Z,98.59
2023-02-11T22:58:55.411Z,98.79
2023-02-11T22:59:55.365Z,99.97
2023-02-11T23:00:55.351Z,98.41
2023-02-11T23:01:55.467Z,101.19
2023-02-11T23:02:55.386Z,98.66
2023-02-11T23:03:55.323Z,99.30
2023-02-11T23:04:55.285Z,105.74
2023-02-11T23:05:55.556Z,103.47
2023-02-11T23:06:55.260Z,103.53
2023-02-11T23:07:55.229Z,103.34
2023-02-11T23:08:55.232Z,105.29
2023-02-11T23:09:55.196Z,108.25
2023-02-11T23:10:55.186Z,105.91
2023-02-11T23:11:55.161Z,103.69
2023-02-11T23:12:55.142Z,107.78
2023-02-11T23:13:55.155Z,100.40
2023-02-11T23:14:55.105Z,102.71
2023-02-11T23:15:55.602Z,102.22
2023-02-11T23:16:55.207Z,102.34
2023-02-11T23:17:55.048Z,101.88
2023-02-11T23:18:55.043Z,101.60
2023-02-11T23:19:55.037Z,108.23
2023-02-11T23:20:55.020Z,101.90
2023-02-11T23:21:55.012Z,106.83
2023-02-11T23:22:54.985Z,103.25
2023-02-11T23:23:54.970Z,101.51
2023-02-11T23:24:54.961Z,97.96
2023-02-11T23:25:55.337Z,94.62
2023-02-11T23:26:54.922Z,101.51
2023-02-11T23:27:54.925Z,101.02
2023-02-11T23:28:54.898Z,99.93
2023-02-11T23:29:54.884Z,98.95
2023-02-11T23:30:54.888Z,98.34
2023-02-11T23:31:56.989Z,101.58
2023-02-11T23:32:54.823Z,101.66
2023-02-11T23:33:54.793Z,101.06
2023-02-11T23:34:54.770Z,100.20
2023-02-11T23:35:55.132Z,98.32
2023-02-11T23:36:54.740Z,101.81
2023-02-11T23:37:54.718Z,96.06
2023-02-11T23:38:54.702Z,97.05
2023-02-11T23:39:54.694Z,98.15
2023-02-11T23:40:54.675Z,97.13
2023-02-11T23:41:54.632Z,99.39
2023-02-11T23:42:54.637Z,96.88
2023-02-11T23:43:54.599Z,96.73
2023-02-11T23:44:54.582Z,98.87
2023-02-11T23:45:54.870Z,96.60
2023-02-11T23:46:54.542Z,98.17
2023-02-11T23:47:54.502Z,97.05
2023-02-11T23:48:55.330Z,94.67
2023-02-11T23:49:54.457Z,96.76
2023-02-11T23:50:54.441Z,95.09
2023-02-11T23:51:54.421Z,93.17
2023-02-11T23:52:54.402Z,93.81
2023-02-11T23:53:54.385Z,96.76
2023-02-11T23:54:54.353Z,94.57
2023-02-11T23:55:54.721Z,94.09
2023-02-11T23:56:54.321Z,92.51
2023-02-11T23:57:54.294Z,93.21
2023-02-11T23:58:54.287Z,96.38
2023-02-11T23:59:54.254Z,97.50
